Impacts METAR Board INFO
IDs:

KIAD - Washington/Dulles In, VA, US

Updated at: 0306 UTC 18 Dec 2017
Potential Impact None Slight Moderate High
Time17/15Z 17/16Z 17/17Z 17/18Z 17/19Z 17/20Z 17/21Z 17/22Z 17/23Z 18/00Z 18/01Z 18/02Z 18/03Z
VIS10 10 10 10 10 10 10 10 10 10 10 10 10
CIG150 120 120 120 120 120 130 130 100 80 100 80 50
CoverOVCOVCOVCOVCOVCOVCOVCOVCOVCOVCOVCOVCOVC
FltCatVFRVFRVFRVFRVFRVFRVFRVFRVFRVFRVFRVFRVFR
WX--------------------------
WDir0210140014013011014016014015000
WSpd0 4 4 0 5 3 4 3 3 4 5 0 0
WGst-- -- -- -- -- -- -- -- -- -- -- -- --
Raw hourly METARs
KIAD 171452Z 00000KT 10SM SCT120 BKN150 OVC200 04/M01 A3025 RMK AO2 SLP246 T00391011 50003
KIAD 171552Z 21004KT 10SM BKN120 BKN150 OVC200 05/M01 A3027 RMK AO2 SLP254 T00501011
KIAD 171652Z 14004KT 10SM BKN120 BKN150 OVC200 07/M01 A3024 RMK AO2 PRESFR SLP243 T00721011
KIAD 171752Z 00000KT 10SM BKN120 BKN150 OVC200 09/M01 A3021 RMK AO2 SLP232 T00891011 10089 21033 58013
KIAD 171852Z 14005KT 10SM OVC120 11/M02 A3019 RMK AO2 SLP224 T01061022
KIAD 171952Z 13003KT 10SM BKN120 OVC150 10/M03 A3018 RMK AO2 SLP220 T01001028
KIAD 172052Z 11004KT 10SM SCT100 OVC130 09/M03 A3016 RMK AO2 SLP215 T00891033 56017
KIAD 172152Z 14003KT 10SM SCT110 OVC130 08/M03 A3017 RMK AO2 SLP218 T00781028
KIAD 172252Z 16003KT 10SM OVC100 06/M02 A3020 RMK AO2 SLP229 T00611017
KIAD 172352Z 14004KT 10SM OVC080 07/M01 A3018 RMK AO2 SLP223 T00671011 10106 20061 50008
KIAD 180052Z 15005KT 10SM FEW080 OVC100 06/00 A3017 RMK AO2 RAB06E14 SLP218 P0000 T00610000
KIAD 180152Z 00000KT 10SM SCT060 OVC080 07/00 A3016 RMK AO2 SLP214 T00670000
KIAD 180252Z 00000KT 10SM OVC050 05/01 A3016 RMK AO2 SLP215 60000 T00500006 55008